Hibbs, Pennsylvania
Current Conditions -  °F | °C
As of 1:53 PM on Monday 22 Dec 2014 (Local Time) from KMGW Reporting Station
Overcast Overcast  
Wind Chill: 41°   Ceiling: 8000
Heat Index: 45°   Visibility: 10mi
Dew Point: 28°   Wind: 7mph
Humidity: 52%   Direction: NA
Pressure: 30.01"   Gusts: NA
Location:  39.93°N, 79.88°W
Report Text: KMGW 221853Z VRB06KT 10SM FEW065 OVC080 07/M02 A3001 RMK AO2 SLP172 T00721022
Loading
Personal Weather Stations






























Interactive Weather Map New forecast layout! Learn more

10-Day Weather Forecast

Advertisements
Track Severe Weather on mobile